Time;durP1;ratioP1;P1;durP2;ratioP2;P2;SDS_P1;SDS_P2;PMS_P1;PMS_P2;Temp;Humidity;BMP_temperature;BMP_pressure;BME280_temperature;BME280_humidity;BME280_pressure;Samples;Min_cycle;Max_cycle;Signal;HPM_P1;HPM_P2
2022/04/24 00:00:10;;;;;;;10.13;6.72;;;9.80;99.90;;;;;;5066954;28;20104;-87
2022/04/24 00:02:41;;;;;;;10.05;6.47;;;9.80;99.90;;;;;;5063967;28;20588;-87
2022/04/24 00:05:07;;;;;;;12.52;6.50;;;9.80;99.90;;;;;;5093868;28;20369;-87
2022/04/24 00:07:33;;;;;;;13.07;7.03;;;9.80;99.90;;;;;;5075550;28;20048;-86
2022/04/24 00:09:58;;;;;;;10.60;6.60;;;9.80;99.90;;;;;;5093437;28;20094;-88
2022/04/24 00:12:24;;;;;;;10.95;6.57;;;9.70;99.90;;;;;;5075197;28;20040;-87
2022/04/24 00:14:50;;;;;;;10.05;6.15;;;9.70;99.90;;;;;;5075424;28;20058;-87
2022/04/24 00:17:16;;;;;;;9.85;6.88;;;10.00;99.90;;;;;;5059017;28;20044;-87
2022/04/24 00:19:44;;;;;;;11.77;6.97;;;10.00;99.90;;;;;;5093823;28;20074;-87
2022/04/24 00:22:10;;;;;;;9.45;6.25;;;9.60;99.90;;;;;;5075789;28;20418;-87
2022/04/24 00:24:36;;;;;;;9.85;6.60;;;9.50;99.90;;;;;;5075382;28;20112;-87
2022/04/24 00:27:02;;;;;;;10.07;6.85;;;9.50;99.90;;;;;;5058266;28;20071;-86
2022/04/24 00:29:27;;;;;;;10.27;6.32;;;9.50;99.90;;;;;;5096515;28;20048;-87
2022/04/24 00:31:54;;;;;;;10.70;6.72;;;9.50;99.90;;;;;;5078469;28;20047;-88
2022/04/24 00:34:20;;;;;;;8.57;6.10;;;9.40;99.90;;;;;;5096800;28;20044;-88
2022/04/24 00:36:45;;;;;;;9.20;6.65;;;9.40;99.90;;;;;;5095810;28;20044;-85
2022/04/24 00:39:12;;;;;;;9.55;6.57;;;9.40;99.90;;;;;;5097217;28;20094;-87
2022/04/24 00:41:49;;;;;;;10.48;6.63;;;9.70;99.90;;;;;;5079026;28;20036;-87
2022/04/24 00:44:17;;;;;;;10.25;6.50;;;9.40;99.90;;;;;;5078329;28;20040;-86
2022/04/24 00:47:06;;;;;;;9.77;6.03;;;9.70;99.90;;;;;;5096795;28;20113;-87
2022/04/24 00:49:32;;;;;;;9.95;6.88;;;9.30;99.90;;;;;;5096136;28;20165;-87
2022/04/24 00:51:57;;;;;;;9.77;6.68;;;9.30;99.90;;;;;;5078307;28;20088;-87
2022/04/24 00:54:23;;;;;;;10.13;6.10;;;9.30;99.90;;;;;;5078510;28;20086;-87
2022/04/24 00:56:49;;;;;;;11.15;6.78;;;9.20;99.90;;;;;;5096412;28;20074;-87
2022/04/24 00:59:15;;;;;;;9.88;6.88;;;9.40;99.90;;;;;;5096414;28;20082;-88
2022/04/24 01:01:42;;;;;;;11.00;7.20;;;9.70;99.90;;;;;;5078180;28;20040;-87
2022/04/24 01:04:09;;;;;;;10.98;6.57;;;9.00;99.90;;;;;;5062079;28;20044;-86
2022/04/24 01:06:41;;;;;;;13.32;6.60;;;9.00;99.90;;;;;;5096386;28;20425;-88
2022/04/24 01:09:17;;;;;;;10.13;7.03;;;9.30;99.90;;;;;;5078348;28;20127;-86
2022/04/24 01:11:46;;;;;;;11.90;6.68;;;9.00;99.90;;;;;;5062115;28;20070;-87
2022/04/24 01:14:12;;;;;;;10.93;6.93;;;9.30;99.90;;;;;;5061542;28;20047;-86
2022/04/24 01:16:39;;;;;;;11.18;7.10;;;8.80;99.90;;;;;;5077833;28;20406;-87
2022/04/24 01:19:05;;;;;;;11.02;6.78;;;9.00;99.90;;;;;;5096309;28;20044;-88
2022/04/24 01:21:32;;;;;;;11.38;6.57;;;9.40;99.90;;;;;;5077890;28;20047;-88
2022/04/24 01:23:58;;;;;;;9.80;7.18;;;9.30;99.90;;;;;;5096004;28;20077;-87
2022/04/24 01:26:24;;;;;;;11.07;6.78;;;8.80;99.90;;;;;;5114577;22;20059;-87
2022/04/24 01:28:50;;;;;;;11.25;6.90;;;8.70;99.90;;;;;;5098155;28;20073;-87
2022/04/24 01:31:15;;;;;;;11.25;7.18;;;8.80;99.90;;;;;;5094943;28;20046;-87
2022/04/24 01:33:41;;;;;;;11.38;6.93;;;8.70;99.90;;;;;;5117910;28;20193;-87
2022/04/24 01:36:07;;;;;;;12.45;6.88;;;8.90;99.90;;;;;;5119257;28;20048;-87
2022/04/24 01:38:33;;;;;;;10.38;7.22;;;8.50;99.90;;;;;;5097858;28;20067;-86
2022/04/24 01:40:59;;;;;;;11.43;7.00;;;8.50;99.90;;;;;;5116077;28;20051;-86
2022/04/24 01:43:24;;;;;;;10.75;7.03;;;8.50;99.90;;;;;;5081096;28;20099;-88
2022/04/24 01:45:55;;;;;;;13.68;7.10;;;8.80;99.90;;;;;;5116220;28;20045;-88
2022/04/24 01:48:21;;;;;;;12.27;7.60;;;8.40;99.90;;;;;;5098019;28;20550;-88
2022/04/24 01:50:46;;;;;;;11.77;6.95;;;8.50;99.90;;;;;;5097813;28;20135;-87
2022/04/24 01:53:12;;;;;;;11.30;7.18;;;8.30;99.90;;;;;;5097456;28;20134;-87
2022/04/24 01:55:38;;;;;;;10.95;7.50;;;8.70;99.90;;;;;;5117800;28;20048;-87
2022/04/24 01:58:03;;;;;;;10.23;7.00;;;8.20;99.90;;;;;;5122671;28;20036;-87
2022/04/24 02:00:30;;;;;;;11.27;6.78;;;8.20;99.90;;;;;;5096696;28;20066;-88
2022/04/24 02:02:56;;;;;;;12.40;7.57;;;8.20;99.90;;;;;;5115548;28;20440;-88
2022/04/24 02:05:22;;;;;;;10.50;6.85;;;8.10;99.90;;;;;;5115640;28;20051;-86
2022/04/24 02:07:47;;;;;;;10.05;7.20;;;8.10;99.90;;;;;;5097106;28;20078;-87
2022/04/24 02:10:13;;;;;;;12.27;7.10;;;8.10;99.90;;;;;;5080202;28;20108;-87
2022/04/24 02:12:40;;;;;;;11.25;7.28;;;8.00;99.90;;;;;;5097846;28;20054;-87
2022/04/24 02:15:09;;;;;;;10.90;7.25;;;8.50;99.90;;;;;;5079905;28;20040;-88
2022/04/24 02:17:34;;;;;;;11.90;7.70;;;8.00;99.90;;;;;;5079848;28;20043;-87
2022/04/24 02:20:01;;;;;;;9.65;7.10;;;7.90;99.90;;;;;;5096887;28;20126;-87
2022/04/24 02:22:34;;;;;;;11.90;7.28;;;8.10;99.90;;;;;;5114807;28;20039;-87
2022/04/24 02:25:00;;;;;;;11.07;7.15;;;8.20;99.90;;;;;;5097826;27;20043;-88
2022/04/24 02:27:26;;;;;;;10.75;7.28;;;7.90;99.90;;;;;;5134486;27;20147;-87
2022/04/24 02:29:52;;;;;;;11.10;7.20;;;7.80;99.90;;;;;;5135549;27;20447;-87
2022/04/24 02:32:19;;;;;;;13.40;7.40;;;7.80;99.90;;;;;;5135302;27;20035;-88
2022/04/24 02:34:45;;;;;;;12.15;7.18;;;7.90;99.90;;;;;;5116865;27;20054;-87
2022/04/24 02:37:11;;;;;;;12.25;7.30;;;7.70;99.90;;;;;;5134125;27;20035;-87
2022/04/24 02:39:36;;;;;;;12.07;7.93;;;7.70;99.90;;;;;;5135480;27;20051;-87
2022/04/24 02:42:02;;;;;;;10.75;7.18;;;7.70;99.90;;;;;;5135820;27;20039;-86
2022/04/24 02:44:28;;;;;;;11.48;7.20;;;7.70;99.90;;;;;;5116943;27;20035;-87
2022/04/24 02:46:54;;;;;;;11.85;7.22;;;7.70;99.90;;;;;;5116718;27;20519;-86
2022/04/24 02:49:19;;;;;;;11.07;7.05;;;8.10;99.90;;;;;;5135265;27;20039;-87
2022/04/24 02:51:45;;;;;;;12.02;7.60;;;7.60;99.90;;;;;;5134316;27;20036;-87
2022/04/24 02:54:11;;;;;;;10.75;7.43;;;7.70;99.90;;;;;;5134906;27;20046;-88
2022/04/24 02:56:37;;;;;;;12.40;7.20;;;7.70;99.90;;;;;;5135567;27;20043;-87
2022/04/24 02:59:03;;;;;;;10.38;6.72;;;8.20;99.90;;;;;;5135185;27;20389;-87
2022/04/24 03:01:30;;;;;;;12.38;7.75;;;7.60;99.90;;;;;;5133591;27;20043;-87
2022/04/24 03:03:56;;;;;;;10.70;7.15;;;7.60;99.90;;;;;;5134934;27;20485;-87
2022/04/24 03:06:22;;;;;;;9.95;7.25;;;7.60;99.90;;;;;;5134386;27;20051;-87
2022/04/24 03:08:48;;;;;;;12.85;7.25;;;7.50;99.90;;;;;;5133746;27;20044;-87
2022/04/24 03:11:17;;;;;;;10.13;7.25;;;7.90;99.90;;;;;;5134824;27;20100;-87
2022/04/24 03:13:43;;;;;;;11.07;7.35;;;7.50;99.90;;;;;;5134669;27;20087;-87
2022/04/24 03:16:09;;;;;;;12.40;7.55;;;7.40;99.90;;;;;;5134740;27;20081;-86
2022/04/24 03:18:35;;;;;;;12.30;7.70;;;7.50;99.90;;;;;;5145266;28;20039;-86
2022/04/24 03:21:01;;;;;;;10.13;7.22;;;7.50;99.90;;;;;;5150892;28;20035;-86
2022/04/24 03:23:27;;;;;;;11.90;7.40;;;7.40;99.90;;;;;;5130119;28;20434;-87
2022/04/24 03:25:52;;;;;;;10.15;6.88;;;7.80;99.90;;;;;;5116626;28;20102;-87
2022/04/24 03:28:18;;;;;;;11.55;7.00;;;7.40;99.90;;;;;;5134728;27;20043;-87
2022/04/24 03:30:44;;;;;;;12.38;7.00;;;7.30;99.90;;;;;;5133379;28;20046;-87
2022/04/24 03:33:10;;;;;;;12.82;6.97;;;7.30;99.90;;;;;;5116072;28;20054;-87
2022/04/24 03:35:37;;;;;;;11.32;7.18;;;7.50;99.90;;;;;;5133583;28;20035;-86
2022/04/24 03:38:03;;;;;;;12.23;7.50;;;7.30;99.90;;;;;;5133399;28;20042;-87
2022/04/24 03:40:29;;;;;;;11.52;6.82;;;7.20;99.90;;;;;;5134331;27;20039;-87
2022/04/24 03:42:54;;;;;;;9.40;6.30;;;7.70;99.90;;;;;;5116091;28;20046;-86
2022/04/24 03:45:20;;;;;;;10.27;6.70;;;7.30;99.90;;;;;;5133436;28;20039;-87
2022/04/24 03:47:47;;;;;;;11.73;7.32;;;7.20;99.90;;;;;;5116074;28;20047;-87
2022/04/24 03:50:13;;;;;;;10.20;6.95;;;7.50;99.90;;;;;;5134382;27;20035;-87
2022/04/24 03:52:39;;;;;;;9.98;7.00;;;7.20;99.90;;;;;;5134534;27;20127;-86
2022/04/24 03:55:06;;;;;;;10.52;7.03;;;7.40;99.90;;;;;;5135281;28;20079;-88
2022/04/24 03:57:31;;;;;;;11.35;7.10;;;7.20;99.90;;;;;;5133061;28;20141;-85
2022/04/24 03:59:57;;;;;;;12.13;7.78;;;7.50;99.90;;;;;;5134301;28;20126;-87
2022/04/24 04:02:23;;;;;;;10.40;6.72;;;7.20;99.90;;;;;;5134262;28;20035;-87
2022/04/24 04:04:49;;;;;;;13.35;7.55;;;7.10;99.90;;;;;;5137436;27;20043;-87
2022/04/24 04:07:15;;;;;;;12.20;7.53;;;7.10;99.90;;;;;;5143224;27;20050;-87
2022/04/24 04:09:40;;;;;;;10.30;7.40;;;7.10;99.90;;;;;;5146505;27;20043;-87
2022/04/24 04:12:07;;;;;;;11.07;7.32;;;7.00;99.90;;;;;;5141044;27;20058;-87
2022/04/24 04:14:32;;;;;;;13.35;8.50;;;7.00;99.90;;;;;;5139127;27;20054;-87
2022/04/24 04:16:58;;;;;;;16.92;9.48;;;7.00;99.90;;;;;;5137350;27;20035;-87
2022/04/24 04:19:24;;;;;;;17.75;11.10;;;6.90;99.90;;;;;;5138722;27;20092;-86
2022/04/24 04:21:50;;;;;;;18.77;11.82;;;6.90;99.90;;;;;;5121081;27;20097;-87
2022/04/24 04:24:16;;;;;;;18.65;12.90;;;6.80;99.90;;;;;;5137012;27;20043;-87
2022/04/24 04:26:42;;;;;;;22.25;14.05;;;7.10;99.90;;;;;;5119398;27;20543;-87
2022/04/24 04:29:08;;;;;;;24.10;14.07;;;7.00;99.90;;;;;;5145402;27;20047;-83
2022/04/24 04:31:35;;;;;;;21.52;13.73;;;6.60;99.90;;;;;;5145235;27;20082;-88
2022/04/24 04:34:01;;;;;;;23.48;14.38;;;6.60;99.90;;;;;;5137182;27;20549;-87
2022/04/24 04:36:27;;;;;;;20.17;13.85;;;6.60;99.90;;;;;;5138736;27;20078;-87
2022/04/24 04:38:53;;;;;;;24.98;13.60;;;6.60;99.90;;;;;;5136911;27;20039;-87
2022/04/24 04:41:19;;;;;;;21.58;13.77;;;6.60;99.90;;;;;;5119803;27;20503;-87
2022/04/24 04:43:44;;;;;;;19.70;12.52;;;6.60;99.90;;;;;;5137957;27;20122;-87
2022/04/24 04:46:16;;;;;;;19.55;12.50;;;6.60;99.90;;;;;;5136665;27;20132;-86
2022/04/24 04:48:41;;;;;;;19.73;11.93;;;6.70;99.90;;;;;;5137142;27;20043;-88
2022/04/24 04:51:07;;;;;;;18.85;11.88;;;6.60;99.90;;;;;;5136379;27;20537;-87
2022/04/24 04:53:34;;;;;;;18.48;11.07;;;6.70;99.90;;;;;;5137821;27;20035;-87
2022/04/24 04:56:00;;;;;;;17.80;10.63;;;6.80;99.90;;;;;;5136047;27;20047;-88
2022/04/24 04:58:26;;;;;;;17.23;10.48;;;6.90;99.90;;;;;;5135799;27;20097;-87
2022/04/24 05:00:51;;;;;;;13.75;9.38;;;6.90;99.90;;;;;;5118684;27;20130;-87
2022/04/24 05:03:17;;;;;;;16.05;10.07;;;6.90;99.90;;;;;;5137240;27;20111;-87
2022/04/24 05:05:42;;;;;;;15.45;9.15;;;6.90;99.90;;;;;;5137157;27;20477;-88
2022/04/24 05:08:08;;;;;;;15.00;8.63;;;6.90;99.90;;;;;;5118661;27;20039;-87
2022/04/24 05:10:34;;;;;;;14.85;9.15;;;6.90;99.90;;;;;;5136982;27;20089;-88
2022/04/24 05:12:59;;;;;;;12.57;7.63;;;7.10;99.90;;;;;;5136325;27;20097;-88
2022/04/24 05:15:25;;;;;;;12.23;7.85;;;6.90;99.90;;;;;;5134673;27;20053;-87
2022/04/24 05:17:52;;;;;;;13.30;8.07;;;7.10;99.90;;;;;;5136079;27;20089;-87
2022/04/24 05:20:18;;;;;;;13.57;8.30;;;7.00;99.90;;;;;;5135509;27;20533;-87
2022/04/24 05:22:43;;;;;;;12.43;8.23;;;7.90;99.90;;;;;;5136762;27;20070;-88
2022/04/24 05:25:10;;;;;;;11.95;7.20;;;7.50;99.90;;;;;;5135382;27;20073;-87
2022/04/24 05:27:37;;;;;;;10.00;7.13;;;7.20;99.90;;;;;;5116110;28;20070;-87
2022/04/24 05:30:05;;;;;;;11.95;7.50;;;7.30;99.90;;;;;;5097780;28;20079;-87
2022/04/24 05:32:46;;;;;;;12.65;7.40;;;7.30;99.90;;;;;;5097736;28;20078;-87
2022/04/24 05:35:13;;;;;;;10.40;6.70;;;7.30;99.90;;;;;;5064431;28;20054;-87
2022/04/24 05:37:40;;;;;;;11.27;6.97;;;7.40;99.90;;;;;;5097746;28;20036;-87
2022/04/24 05:40:06;;;;;;;8.90;6.25;;;7.50;99.90;;;;;;5097203;28;20130;-88
2022/04/24 05:42:33;;;;;;;9.77;6.97;;;7.50;99.90;;;;;;5080840;28;20387;-87
2022/04/24 05:45:00;;;;;;;10.32;6.35;;;7.50;99.90;;;;;;5097241;28;20039;-88
2022/04/24 05:47:31;;;;;;;11.85;6.65;;;7.60;99.90;;;;;;5097459;28;20394;-87
2022/04/24 05:49:57;;;;;;;10.30;6.15;;;7.70;99.90;;;;;;5115751;28;20035;-88
2022/04/24 05:52:24;;;;;;;13.05;6.88;;;7.80;99.90;;;;;;5115885;28;20046;-87
2022/04/24 05:54:49;;;;;;;9.70;6.18;;;8.20;99.90;;;;;;5115853;28;20048;-88
2022/04/24 05:57:15;;;;;;;9.32;6.32;;;8.60;99.90;;;;;;5097345;28;20061;-87
2022/04/24 05:59:41;;;;;;;11.65;6.70;;;8.00;99.90;;;;;;5115640;28;20046;-86
2022/04/24 06:02:06;;;;;;;10.43;6.35;;;8.00;99.90;;;;;;5114033;28;20044;-87
2022/04/24 06:04:32;;;;;;;10.18;6.38;;;8.10;99.90;;;;;;5115578;28;20140;-86
2022/04/24 06:06:58;;;;;;;10.25;6.25;;;8.10;99.90;;;;;;5114144;28;20487;-87
2022/04/24 06:09:23;;;;;;;10.77;6.20;;;9.00;99.90;;;;;;5113943;28;20047;-87
2022/04/24 06:11:49;;;;;;;11.88;6.45;;;8.30;99.90;;;;;;5115310;28;20031;-87
2022/04/24 06:14:14;;;;;;;10.43;6.53;;;8.30;99.90;;;;;;5115514;28;20478;-86
2022/04/24 06:16:45;;;;;;;11.60;6.40;;;8.80;99.90;;;;;;5113982;28;20079;-87
2022/04/24 06:19:11;;;;;;;10.88;6.72;;;8.50;99.90;;;;;;5096841;28;20123;-87
2022/04/24 06:21:36;;;;;;;7.95;5.47;;;8.50;99.90;;;;;;5115068;28;20119;-87
2022/04/24 06:24:02;;;;;;;9.93;6.20;;;8.70;99.90;;;;;;5118034;28;20082;-86
2022/04/24 06:26:28;;;;;;;11.80;5.90;;;8.80;99.90;;;;;;5140487;27;20054;-87
2022/04/24 06:28:54;;;;;;;12.63;5.57;;;8.90;99.90;;;;;;5157206;27;20050;-88
2022/04/24 06:31:25;;;;;;;10.52;6.45;;;9.00;99.90;;;;;;5156149;27;20049;-86
2022/04/24 06:33:50;;;;;;;9.30;6.10;;;9.10;99.90;;;;;;5137636;27;20043;-87
2022/04/24 06:36:16;;;;;;;10.00;6.00;;;9.60;99.90;;;;;;5120862;27;20430;-87
2022/04/24 06:38:41;;;;;;;9.50;5.72;;;9.80;99.90;;;;;;5156122;27;20118;-86
2022/04/24 06:41:07;;;;;;;10.65;6.30;;;10.00;99.90;;;;;;5120735;27;20061;-86
2022/04/24 06:43:33;;;;;;;9.77;6.10;;;9.80;99.90;;;;;;5156312;27;20045;-86
2022/04/24 06:45:58;;;;;;;8.57;6.43;;;9.50;99.90;;;;;;5156077;27;20477;-86
2022/04/24 06:48:25;;;;;;;9.18;6.10;;;9.70;99.90;;;;;;5156083;27;20047;-87
2022/04/24 06:50:51;;;;;;;10.77;6.53;;;10.30;99.90;;;;;;5137232;27;20098;-88
2022/04/24 06:53:20;;;;;;;11.48;6.10;;;9.70;99.90;;;;;;5155924;27;20437;-86
2022/04/24 06:55:47;;;;;;;9.00;6.00;;;9.80;99.90;;;;;;5137277;27;20035;-87
2022/04/24 06:58:15;;;;;;;8.43;5.60;;;9.90;99.90;;;;;;5155901;27;20042;-85
2022/04/24 07:00:42;;;;;;;9.82;6.38;;;10.00;99.90;;;;;;5137190;27;20046;-86
2022/04/24 07:03:24;;;;;;;10.10;6.00;;;10.00;99.90;;;;;;5156357;27;20043;-84
2022/04/24 07:05:53;;;;;;;10.68;6.40;;;10.10;99.90;;;;;;5137591;27;20049;-84
2022/04/24 07:08:21;;;;;;;12.25;6.25;;;10.10;99.90;;;;;;5137808;27;20043;-84
2022/04/24 07:10:47;;;;;;;9.50;6.10;;;10.40;99.90;;;;;;5137338;27;20034;-85
2022/04/24 07:13:12;;;;;;;12.20;6.60;;;10.00;99.90;;;;;;5155717;27;20385;-86
2022/04/24 07:15:41;;;;;;;11.05;6.30;;;10.40;99.90;;;;;;5155915;27;20092;-86
2022/04/24 07:18:10;;;;;;;9.57;5.82;;;10.50;99.90;;;;;;5137981;27;20091;-84
2022/04/24 07:20:36;;;;;;;10.95;6.20;;;10.60;99.90;;;;;;5156455;27;20365;-85
2022/04/24 07:23:05;;;;;;;9.45;6.13;;;10.70;99.90;;;;;;5156228;27;20051;-87
2022/04/24 07:25:43;;;;;;;9.40;6.03;;;10.80;99.90;;;;;;5119962;27;20070;-84
2022/04/24 07:28:19;;;;;;;9.55;6.05;;;10.80;99.90;;;;;;5137081;27;20042;-86
2022/04/24 07:30:45;;;;;;;10.32;5.63;;;11.50;99.90;;;;;;5155640;27;20557;-86
2022/04/24 07:33:16;;;;;;;9.43;5.97;;;11.10;99.90;;;;;;5138103;27;20078;-87
2022/04/24 07:35:42;;;;;;;11.50;6.20;;;11.80;99.90;;;;;;5138076;27;20095;-86
2022/04/24 07:38:08;;;;;;;9.02;5.55;;;11.20;99.90;;;;;;5157754;27;20035;-86
2022/04/24 07:40:36;;;;;;;9.65;5.00;;;11.30;99.90;;;;;;5160606;27;20038;-87
2022/04/24 07:43:04;;;;;;;10.15;5.05;;;11.40;99.90;;;;;;5160775;27;20038;-86
2022/04/24 07:45:34;;;;;;;8.98;4.75;;;11.50;99.90;;;;;;5125197;27;20042;-87
2022/04/24 07:48:07;;;;;;;7.28;4.75;;;11.50;99.90;;;;;;5141770;27;20106;-88
2022/04/24 07:50:38;;;;;;;7.38;4.38;;;11.70;99.90;;;;;;5160908;27;20386;-87
2022/04/24 07:53:05;;;;;;;7.68;5.10;;;11.80;99.90;;;;;;5141211;27;20054;-86
2022/04/24 07:55:31;;;;;;;9.02;4.82;;;12.30;99.90;;;;;;5123847;27;20405;-87
2022/04/24 07:57:57;;;;;;;7.88;4.38;;;12.00;99.90;;;;;;5140823;27;20482;-84
2022/04/24 08:00:25;;;;;;;7.00;4.60;;;11.90;99.90;;;;;;5160809;27;20039;-86
2022/04/24 08:03:03;;;;;;;5.60;3.85;;;12.10;99.90;;;;;;5166965;27;20042;-87
2022/04/24 08:05:32;;;;;;;6.53;3.78;;;12.30;99.90;;;;;;5173475;27;20053;-87
2022/04/24 08:08:06;;;;;;;6.85;4.10;;;12.50;99.90;;;;;;5130044;27;20046;-86
2022/04/24 08:10:35;;;;;;;7.28;3.88;;;12.60;99.90;;;;;;5142324;27;20047;-86
2022/04/24 08:13:04;;;;;;;5.90;3.28;;;12.50;99.90;;;;;;5161822;27;20042;-87
2022/04/24 08:15:30;;;;;;;4.88;3.08;;;13.20;99.90;;;;;;5142852;27;20502;-84
2022/04/24 08:17:56;;;;;;;5.68;3.10;;;12.60;99.90;;;;;;5125442;27;20046;-87
2022/04/24 08:20:21;;;;;;;7.00;3.00;;;12.70;99.90;;;;;;5142106;27;20054;-86
2022/04/24 08:22:49;;;;;;;4.55;2.33;;;12.80;99.90;;;;;;5160636;27;20043;-85
2022/04/24 08:25:35;;;;;;;6.55;2.88;;;12.80;99.90;;;;;;5141257;27;20517;-83
2022/04/24 08:28:06;;;;;;;4.63;2.30;;;13.00;99.90;;;;;;5108656;27;20042;-85
2022/04/24 08:30:33;;;;;;;4.45;2.40;;;12.80;99.90;;;;;;5169886;27;20113;-84
2022/04/24 08:33:05;;;;;;;4.15;2.40;;;13.00;99.90;;;;;;5154480;27;20046;-86
2022/04/24 08:35:31;;;;;;;5.15;2.42;;;13.10;99.90;;;;;;5154640;27;20503;-85
2022/04/24 08:37:57;;;;;;;3.97;2.15;;;14.00;99.90;;;;;;5174367;27;20039;-87
2022/04/24 08:40:24;;;;;;;3.90;2.20;;;13.30;99.90;;;;;;5136984;27;20473;-88
2022/04/24 08:42:52;;;;;;;3.83;2.20;;;13.40;99.90;;;;;;5140530;27;20397;-86
2022/04/24 08:45:22;;;;;;;5.47;2.20;;;13.50;99.90;;;;;;5141422;27;20050;-88
2022/04/24 08:47:49;;;;;;;3.17;1.95;;;13.60;99.90;;;;;;5140244;27;20389;-86
2022/04/24 08:50:14;;;;;;;3.20;1.90;;;13.80;99.90;;;;;;5141704;27;20119;-88
2022/04/24 08:52:46;;;;;;;3.25;2.17;;;13.90;99.90;;;;;;5140278;27;20051;-86
2022/04/24 08:55:12;;;;;;;4.07;2.10;;;14.10;99.90;;;;;;5122284;27;20046;-85
2022/04/24 08:57:38;;;;;;;4.00;1.90;;;14.10;99.90;;;;;;5139570;27;20442;-87
2022/04/24 09:00:09;;;;;;;3.45;1.90;;;14.30;99.90;;;;;;5140461;27;20430;-84
2022/04/24 09:02:35;;;;;;;4.03;1.90;;;14.40;99.90;;;;;;5123726;27;20043;-84
2022/04/24 09:05:04;;;;;;;4.43;1.92;;;14.50;99.90;;;;;;5140281;27;20048;-85
2022/04/24 09:07:33;;;;;;;5.05;1.92;;;14.60;99.90;;;;;;5162501;27;20039;-84
2022/04/24 09:10:03;;;;;;;4.60;1.90;;;14.60;99.90;;;;;;5140720;27;20493;-89
2022/04/24 09:12:29;;;;;;;4.93;2.33;;;14.70;99.90;;;;;;5159340;27;20478;-85
2022/04/24 09:14:57;;;;;;;3.58;1.85;;;14.80;99.90;;;;;;5159031;27;20118;-84
2022/04/24 09:17:28;;;;;;;4.00;2.03;;;14.90;99.90;;;;;;5139307;27;20047;-85
2022/04/24 09:19:55;;;;;;;4.03;2.00;;;15.00;99.90;;;;;;5158627;27;20051;-84
2022/04/24 09:22:22;;;;;;;5.05;2.10;;;15.20;99.90;;;;;;5139733;27;20083;-88
2022/04/24 09:24:55;;;;;;;4.13;1.90;;;15.20;99.90;;;;;;5122490;27;20450;-86
2022/04/24 09:27:42;;;;;;;2.95;1.80;;;15.20;99.90;;;;;;5158061;27;20497;-88
2022/04/24 09:30:12;;;;;;;6.00;2.25;;;15.30;99.90;;;;;;5139667;27;20116;-87
2022/04/24 09:32:52;;;;;;;9.52;2.50;;;15.40;99.90;;;;;;5140739;27;20056;-88
2022/04/24 09:35:31;;;;;;;2.83;1.75;;;15.30;99.90;;;;;;5139583;27;20038;-87
2022/04/24 09:38:10;;;;;;;4.80;2.20;;;15.30;99.90;;;;;;5123000;27;20051;-86
2022/04/24 09:40:46;;;;;;;4.25;2.00;;;15.40;99.90;;;;;;5158078;27;20054;-85
2022/04/24 09:43:20;;;;;;;3.45;1.80;;;15.50;99.90;;;;;;5157398;27;20440;-87
2022/04/24 09:45:56;;;;;;;3.95;2.00;;;15.60;99.90;;;;;;5139192;27;20490;-86
2022/04/24 09:48:23;;;;;;;4.28;2.25;;;15.70;99.90;;;;;;5138721;27;20038;-86
2022/04/24 09:50:49;;;;;;;4.95;1.92;;;15.90;99.90;;;;;;5157150;27;20038;-89
2022/04/24 09:53:19;;;;;;;3.80;1.80;;;16.00;99.90;;;;;;5121781;27;20035;-86
2022/04/24 09:55:45;;;;;;;4.30;1.95;;;16.20;99.90;;;;;;5157003;27;20490;-87
2022/04/24 09:58:13;;;;;;;4.20;1.75;;;16.00;99.90;;;;;;5157297;27;20474;-88
2022/04/24 10:00:40;;;;;;;4.50;2.00;;;16.20;99.90;;;;;;5138081;27;20150;-87
2022/04/24 10:03:15;;;;;;;4.30;2.30;;;16.10;99.90;;;;;;5157431;27;20042;-87
2022/04/24 10:05:43;;;;;;;3.28;1.90;;;16.20;99.90;;;;;;5157504;27;20070;-87
2022/04/24 10:08:09;;;;;;;3.45;1.80;;;16.30;99.90;;;;;;5157537;27;20038;-88
2022/04/24 10:10:36;;;;;;;3.25;1.77;;;16.50;99.90;;;;;;5157874;27;20149;-87
2022/04/24 10:13:06;;;;;;;5.07;1.80;;;16.50;99.90;;;;;;5139604;27;20069;-87
2022/04/24 10:15:33;;;;;;;2.90;1.70;;;16.40;99.00;;;;;;5138709;27;20066;-85
2022/04/24 10:18:24;;;;;;;3.22;1.50;;;16.50;99.90;;;;;;5138317;27;20038;-87
2022/04/24 10:21:21;;;;;;;3.10;1.40;;;16.70;99.10;;;;;;5138468;27;20091;-86
2022/04/24 10:23:47;;;;;;;3.63;1.92;;;16.80;99.00;;;;;;5137542;27;20042;-86
2022/04/24 10:26:18;;;;;;;4.53;2.10;;;17.00;99.90;;;;;;5156270;27;20065;-86
2022/04/24 10:28:46;;;;;;;3.35;1.73;;;16.90;99.30;;;;;;5137887;27;20083;-86
2022/04/24 10:31:12;;;;;;;4.47;2.25;;;16.80;99.10;;;;;;5137847;27;20142;-85
2022/04/24 10:33:41;;;;;;;4.00;1.92;;;16.90;98.80;;;;;;5137461;27;20130;-86
2022/04/24 10:36:15;;;;;;;3.78;2.03;;;16.80;97.10;;;;;;5137802;27;20408;-86
2022/04/24 10:38:50;;;;;;;3.35;1.85;;;16.80;96.70;;;;;;5137279;27;20536;-85
2022/04/24 10:41:23;;;;;;;3.63;1.73;;;17.00;97.40;;;;;;5137193;27;20050;-85
2022/04/24 10:43:53;;;;;;;3.78;1.95;;;17.00;97.50;;;;;;5120340;27;20419;-86
2022/04/24 10:46:31;;;;;;;5.05;2.10;;;16.90;96.80;;;;;;5137984;27;20038;-85
2022/04/24 10:49:14;;;;;;;5.60;2.05;;;16.70;96.00;;;;;;5136993;27;20047;-86
2022/04/24 10:51:41;;;;;;;4.90;2.60;;;16.90;98.20;;;;;;5137503;27;20045;-86
2022/04/24 10:54:16;;;;;;;4.32;2.50;;;17.10;98.80;;;;;;5162244;27;20049;-86
2022/04/24 10:56:49;;;;;;;4.17;2.47;;;17.40;98.30;;;;;;5137936;27;20047;-86
2022/04/24 10:59:20;;;;;;;3.90;2.10;;;17.40;97.60;;;;;;5137039;27;20077;-86
2022/04/24 11:01:49;;;;;;;4.07;2.00;;;17.60;97.90;;;;;;5137196;27;20053;-87
2022/04/24 11:04:15;;;;;;;3.83;2.13;;;17.80;97.70;;;;;;5155993;27;20038;-86
2022/04/24 11:06:59;;;;;;;5.95;2.33;;;17.60;96.30;;;;;;5137352;27;20086;-85
2022/04/24 11:09:31;;;;;;;6.88;2.28;;;17.60;96.10;;;;;;5137253;27;20084;-85
2022/04/24 11:12:03;;;;;;;3.10;1.90;;;17.60;96.40;;;;;;5137593;27;20058;-86
2022/04/24 11:14:30;;;;;;;3.58;1.73;;;17.80;96.50;;;;;;5136911;27;20046;-86
2022/04/24 11:16:57;;;;;;;2.63;1.80;;;17.90;96.20;;;;;;5120299;27;20041;-84
2022/04/24 11:19:35;;;;;;;2.78;1.65;;;18.10;95.50;;;;;;5121548;27;20396;-84
2022/04/24 11:22:05;;;;;;;4.03;1.80;;;18.30;95.10;;;;;;5122719;27;20035;-88
2022/04/24 11:24:34;;;;;;;2.80;1.70;;;18.40;94.60;;;;;;5138073;27;20050;-84
2022/04/24 11:27:05;;;;;;;2.80;1.70;;;18.30;94.00;;;;;;5155421;27;20089;-86
2022/04/24 11:29:32;;;;;;;4.78;1.77;;;18.40;93.10;;;;;;5137334;27;20042;-85
2022/04/24 11:31:58;;;;;;;3.80;2.05;;;18.40;93.90;;;;;;5136524;27;20074;-84
2022/04/24 11:34:25;;;;;;;3.58;1.70;;;18.50;94.10;;;;;;5155521;27;20046;-85
2022/04/24 11:36:56;;;;;;;4.93;1.83;;;18.50;93.80;;;;;;5120577;27;20034;-86
2022/04/24 11:39:22;;;;;;;3.78;1.80;;;18.10;91.50;;;;;;5138169;27;20035;-85
2022/04/24 11:41:55;;;;;;;4.43;1.75;;;18.30;93.10;;;;;;5138937;27;20041;-84
2022/04/24 11:50:14;;;;;;;4.53;1.95;;;18.40;92.80;;;;;;5155635;27;20047;-86
2022/04/24 11:52:43;;;;;;;4.28;1.80;;;18.70;92.50;;;;;;5156162;27;20034;-84
2022/04/24 11:58:15;;;;;;;3.28;1.73;;;18.40;91.90;;;;;;5155730;27;20089;-84
2022/04/24 12:00:41;;;;;;;6.55;2.00;;;18.00;92.40;;;;;;5121222;27;20066;-84
2022/04/24 12:03:07;;;;;;;5.47;1.90;;;17.70;92.10;;;;;;5155376;27;20039;-84
2022/04/24 12:05:34;;;;;;;5.40;2.03;;;17.40;92.70;;;;;;5137196;27;20046;-84
2022/04/24 12:08:01;;;;;;;3.53;1.70;;;17.30;92.50;;;;;;5155702;27;20038;-84
2022/04/24 12:10:27;;;;;;;8.63;2.10;;;17.40;93.00;;;;;;5156867;27;20039;-84
2022/04/24 12:12:54;;;;;;;5.63;2.80;;;17.30;94.10;;;;;;5137415;27;20087;-84
2022/04/24 12:15:24;;;;;;;6.13;2.60;;;17.30;96.30;;;;;;5156909;27;20042;-84
2022/04/24 12:17:54;;;;;;;5.57;2.88;;;17.40;96.70;;;;;;5138228;27;20370;-83
2022/04/24 12:20:20;;;;;;;6.47;3.00;;;17.20;97.70;;;;;;5122190;27;20123;-84
2022/04/24 12:22:46;;;;;;;5.95;2.90;;;17.00;98.10;;;;;;5122006;27;20466;-83
2022/04/24 12:25:15;;;;;;;6.82;3.30;;;17.40;99.20;;;;;;5125247;27;20049;-84
2022/04/24 12:27:55;;;;;;;5.47;2.92;;;17.70;99.20;;;;;;5071254;22;20044;-84
2022/04/24 12:30:23;;;;;;;5.05;3.00;;;18.00;99.90;;;;;;5062869;28;20512;-83
2022/04/24 12:32:49;;;;;;;4.97;2.55;;;18.40;99.70;;;;;;5105643;22;20044;-84
2022/04/24 12:35:33;;;;;;;6.22;2.80;;;18.70;99.50;;;;;;5100599;28;20073;-84
2022/04/24 12:38:00;;;;;;;7.95;2.85;;;18.90;99.80;;;;;;5100271;28;20076;-83
2022/04/24 12:40:26;;;;;;;5.55;3.25;;;19.20;99.40;;;;;;5084627;28;20047;-84
2022/04/24 12:42:53;;;;;;;12.35;3.55;;;19.20;99.00;;;;;;5084883;28;20044;-86
2022/04/24 12:45:20;;;;;;;6.38;3.35;;;19.20;98.30;;;;;;5083614;28;20054;-86
2022/04/24 12:47:47;;;;;;;5.93;3.05;;;19.00;98.80;;;;;;5099036;28;20053;-84
2022/04/24 12:50:14;;;;;;;7.47;3.40;;;19.10;98.50;;;;;;5099413;28;20055;-84
2022/04/24 12:52:39;;;;;;;6.93;3.50;;;19.00;98.50;;;;;;5099170;28;20047;-86
2022/04/24 12:55:06;;;;;;;4.93;2.90;;;18.80;98.50;;;;;;5098388;28;20393;-84
2022/04/24 12:57:31;;;;;;;5.95;3.40;;;18.80;98.40;;;;;;5081220;28;20047;-84